Time;durP1;ratioP1;P1;durP2;ratioP2;P2;SDS_P1;SDS_P2;PMS_P1;PMS_P2;Temp;Humidity;BMP_temperature;BMP_pressure;BME280_temperature;BME280_humidity;BME280_pressure;Samples;Min_cycle;Max_cycle;Signal;HPM_P1;HPM_P2
2023/05/15 00:01:27;;;;;;;;;;;;;;;11.78;63.15723;101693.8;;;;-68
2023/05/15 00:06:27;;;;;;;;;;;;;;;11.69;63.15527;101692.7;;;;-68
2023/05/15 00:11:27;;;;;;;;;;;;;;;11.65;63.0498;101688.8;;;;-69
2023/05/15 00:16:27;;;;;;;;;;;;;;;11.54;63.22363;101671;;;;-69
2023/05/15 00:21:27;;;;;;;;;;;;;;;11.53;63.26563;101673.9;;;;-68
2023/05/15 00:23:37;;;;;;;0.2;0.1;;;;;;;;;;;;;-68
2023/05/15 00:26:27;;;;;;;;;;;;;;;11.45;63.12012;101670.2;;;;-67
2023/05/15 00:31:27;;;;;;;;;;;;;;;11.43;63.12891;101653.9;;;;-69
2023/05/15 00:36:30;;;;;;;;;;;;;;;11.29;63.32031;101659.6;;;;-67
2023/05/15 00:41:30;;;;;;;;;;;;;;;11.23;63.51172;101659.3;;;;-68
2023/05/15 00:46:27;;;;;;;;;;;;;;;11.18;63.43848;101661.9;;;;-68
2023/05/15 00:51:28;;;;;;;;;;;;;;;11.14;63.34277;101657.2;;;;-69
2023/05/15 00:53:38;;;;;;;0.2;0;;;;;;;;;;;;;-68
2023/05/15 00:56:27;;;;;;;;;;;;;;;11.08;63.74707;101657.2;;;;-67
2023/05/15 01:01:32;;;;;;;;;;;;;;;10.99;63.58789;101654.5;;;;-69
2023/05/15 01:06:28;;;;;;;;;;;;;;;10.97;63.69629;101654.4;;;;-69
2023/05/15 01:11:34;;;;;;;;;;;;;;;10.92;63.7002;101648.7;;;;-67
2023/05/15 01:16:27;;;;;;;;;;;;;;;10.87;63.69434;101651.6;;;;-68
2023/05/15 01:21:40;;;;;;;;;;;;;;;10.79;63.69336;101646.5;;;;-67
2023/05/15 01:23:47;;;;;;;0.3;0.1;;;;;;;;;;;;;-68
2023/05/15 01:26:38;;;;;;;;;;;;;;;10.69;64.14551;101653.2;;;;-68
2023/05/15 01:31:34;;;;;;;;;;;;;;;10.64;64.00586;101655.9;;;;-68
2023/05/15 01:36:32;;;;;;;;;;;;;;;10.62;64.0459;101648.9;;;;-68
2023/05/15 01:41:31;;;;;;;;;;;;;;;10.59;64.0752;101645.5;;;;-68
2023/05/15 01:46:30;;;;;;;;;;;;;;;10.57;64.09668;101649.2;;;;-67
2023/05/15 01:51:28;;;;;;;;;;;;;;;10.58;64.20703;101634.8;;;;-68
2023/05/15 01:53:41;;;;;;;0.2;0.1;;;;;;;;;;;;;-69
2023/05/15 01:56:28;;;;;;;;;;;;;;;10.6;64.12207;101633.6;;;;-68
2023/05/15 02:01:27;;;;;;;;;;;;;;;10.62;64.22559;101622.9;;;;-67
2023/05/15 02:06:28;;;;;;;;;;;;;;;10.6;64.34375;101630.4;;;;-67
2023/05/15 02:11:27;;;;;;;;;;;;;;;10.52;64.2666;101643.1;;;;-68
2023/05/15 02:16:27;;;;;;;;;;;;;;;10.49;64.33887;101643.5;;;;-68
2023/05/15 02:21:27;;;;;;;;;;;;;;;10.55;64.14648;101642.2;;;;-68
2023/05/15 02:23:42;;;;;;;0.2;0.1;;;;;;;;;;;;;-68
2023/05/15 02:26:33;;;;;;;;;;;;;;;10.6;64.3877;101644.4;;;;-68
2023/05/15 02:31:34;;;;;;;;;;;;;;;10.6;64.31055;101640.3;;;;-68
2023/05/15 02:36:30;;;;;;;;;;;;;;;10.61;64.63379;101639.9;;;;-67
2023/05/15 02:41:27;;;;;;;;;;;;;;;10.65;64.22949;101633;;;;-70
2023/05/15 02:46:27;;;;;;;;;;;;;;;10.82;64.32129;101623.4;;;;-69
2023/05/15 02:51:28;;;;;;;;;;;;;;;10.73;64.6084;101618.6;;;;-70
2023/05/15 02:53:46;;;;;;;0.2;0.1;;;;;;;;;;;;;-70
2023/05/15 02:56:27;;;;;;;;;;;;;;;10.71;64.37207;101606.5;;;;-69
2023/05/15 03:01:27;;;;;;;;;;;;;;;10.7;64.60254;101603;;;;-69
2023/05/15 03:06:27;;;;;;;;;;;;;;;10.62;64.26855;101608.8;;;;-68
2023/05/15 03:11:27;;;;;;;;;;;;;;;10.62;64.43652;101609.1;;;;-69
2023/05/15 03:16:27;;;;;;;;;;;;;;;10.54;64.3916;101610.4;;;;-69
2023/05/15 03:21:27;;;;;;;;;;;;;;;10.47;64.49121;101610.1;;;;-70
2023/05/15 03:23:44;;;;;;;0.2;0.1;;;;;;;;;;;;;-70
2023/05/15 03:26:27;;;;;;;;;;;;;;;10.45;64.54395;101610.6;;;;-69
2023/05/15 03:31:27;;;;;;;;;;;;;;;10.36;64.97559;101616.4;;;;-68
2023/05/15 03:36:27;;;;;;;;;;;;;;;10.34;64.75;101620.5;;;;-68
2023/05/15 03:41:27;;;;;;;;;;;;;;;10.3;64.87793;101611.5;;;;-70
2023/05/15 03:46:27;;;;;;;;;;;;;;;10.26;64.96094;101613.1;;;;-69
2023/05/15 03:51:27;;;;;;;;;;;;;;;10.23;64.97852;101624;;;;-68
2023/05/15 03:53:45;;;;;;;0.2;0;;;;;;;;;;;;;-70
2023/05/15 03:56:27;;;;;;;;;;;;;;;10.22;65.14258;101630.5;;;;-70
2023/05/15 04:01:27;;;;;;;;;;;;;;;10.27;65.26074;101635.2;;;;-69
2023/05/15 04:06:27;;;;;;;;;;;;;;;10.27;65.83789;101629.5;;;;-68
2023/05/15 04:11:27;;;;;;;;;;;;;;;10.33;65.92676;101615.3;;;;-68
2023/05/15 04:16:27;;;;;;;;;;;;;;;10.38;65.34473;101617.7;;;;-67
2023/05/15 04:21:27;;;;;;;;;;;;;;;10.44;65.43066;101612.4;;;;-69
2023/05/15 04:23:46;;;;;;;0.2;0.1;;;;;;;;;;;;;-70
2023/05/15 04:26:27;;;;;;;;;;;;;;;10.51;65.375;101612.5;;;;-68
2023/05/15 04:31:30;;;;;;;;;;;;;;;10.59;65.20898;101615.5;;;;-70
2023/05/15 04:36:27;;;;;;;;;;;;;;;10.67;65.2998;101616.5;;;;-69
2023/05/15 04:41:29;;;;;;;;;;;;;;;10.69;65.37988;101622.9;;;;-68
2023/05/15 04:46:28;;;;;;;;;;;;;;;10.76;65.78027;101624.5;;;;-67
2023/05/15 04:51:27;;;;;;;;;;;;;;;10.84;65.87988;101613.6;;;;-67
2023/05/15 04:53:47;;;;;;;0.2;0.1;;;;;;;;;;;;;-69
2023/05/15 04:56:27;;;;;;;;;;;;;;;10.9;65.77832;101616.1;;;;-68
2023/05/15 05:01:27;;;;;;;;;;;;;;;10.97;65.9209;101620.2;;;;-68
2023/05/15 05:06:27;;;;;;;;;;;;;;;11.03;65.80859;101622.8;;;;-68
2023/05/15 05:11:27;;;;;;;;;;;;;;;11.16;66.25098;101613;;;;-68
2023/05/15 05:16:27;;;;;;;;;;;;;;;11.26;65.82031;101616.4;;;;-68
2023/05/15 05:21:27;;;;;;;;;;;;;;;11.35;65.74609;101616.3;;;;-67
2023/05/15 05:23:48;;;;;;;0.2;0.1;;;;;;;;;;;;;-67
2023/05/15 05:26:28;;;;;;;;;;;;;;;11.42;65.91309;101599.7;;;;-69
2023/05/15 05:31:27;;;;;;;;;;;;;;;11.56;65.70996;101613.5;;;;-68
2023/05/15 05:36:27;;;;;;;;;;;;;;;11.66;65.95996;101616.7;;;;-68
2023/05/15 05:41:27;;;;;;;;;;;;;;;11.71;66.1123;101617.3;;;;-67
2023/05/15 05:46:27;;;;;;;;;;;;;;;11.74;66.12891;101613.1;;;;-68
2023/05/15 05:51:27;;;;;;;;;;;;;;;11.81;66.25977;101611.3;;;;-69
2023/05/15 05:53:49;;;;;;;0.2;0.1;;;;;;;;;;;;;-68
2023/05/15 05:56:27;;;;;;;;;;;;;;;11.86;66.10156;101616;;;;-68
2023/05/15 06:01:27;;;;;;;;;;;;;;;11.94;66.05859;101618.9;;;;-67
2023/05/15 06:06:27;;;;;;;;;;;;;;;11.99;65.91895;101612.5;;;;-68
2023/05/15 06:11:27;;;;;;;;;;;;;;;12.02;65.91309;101605.4;;;;-68
2023/05/15 06:16:27;;;;;;;;;;;;;;;12.07;65.76563;101604.8;;;;-69
2023/05/15 06:21:27;;;;;;;;;;;;;;;12.12;65.75;101602.9;;;;-69
2023/05/15 06:23:50;;;;;;;0.2;0.1;;;;;;;;;;;;;-68
2023/05/15 06:26:27;;;;;;;;;;;;;;;12.16;65.61035;101598.1;;;;-69
2023/05/15 06:31:27;;;;;;;;;;;;;;;12.27;65.49316;101597.2;;;;-68
2023/05/15 06:36:27;;;;;;;;;;;;;;;12.36;65.45117;101594.5;;;;-69
2023/05/15 06:41:27;;;;;;;;;;;;;;;12.44;65.45313;101585.6;;;;-68
2023/05/15 06:46:27;;;;;;;;;;;;;;;12.59;65.27344;101587.1;;;;-68
2023/05/15 06:51:27;;;;;;;;;;;;;;;12.79;65.04785;101582.8;;;;-69
2023/05/15 06:53:51;;;;;;;0.2;0.1;;;;;;;;;;;;;-71
2023/05/15 06:56:27;;;;;;;;;;;;;;;13.05;65.38672;101589.7;;;;-68
2023/05/15 07:01:27;;;;;;;;;;;;;;;13.22;65.36719;101589.4;;;;-68
2023/05/15 07:06:30;;;;;;;;;;;;;;;13.32;66.4668;101590;;;;-70
2023/05/15 07:11:28;;;;;;;;;;;;;;;13.41;66.81445;101590.1;;;;-68
2023/05/15 07:16:27;;;;;;;;;;;;;;;13.46;66.58984;101588.8;;;;-67
2023/05/15 07:21:27;;;;;;;;;;;;;;;13.56;66.15625;101602.5;;;;-67
2023/05/15 07:23:53;;;;;;;0.4;0.2;;;;;;;;;;;;;-68
2023/05/15 07:26:27;;;;;;;;;;;;;;;13.68;65.77246;101595.9;;;;-68
2023/05/15 07:31:27;;;;;;;;;;;;;;;13.79;65.54199;101598;;;;-72
2023/05/15 07:36:27;;;;;;;;;;;;;;;13.86;66.0459;101599.3;;;;-67
2023/05/15 07:41:29;;;;;;;;;;;;;;;13.96;65.35547;101597.5;;;;-66
2023/05/15 07:46:27;;;;;;;;;;;;;;;14.03;65.52148;101602.9;;;;-69
2023/05/15 07:51:27;;;;;;;;;;;;;;;14.04;65.41211;101598.2;;;;-67
2023/05/15 07:53:54;;;;;;;0.2;0.1;;;;;;;;;;;;;-67
2023/05/15 07:56:28;;;;;;;;;;;;;;;14.05;65.78223;101603.1;;;;-66
2023/05/15 08:01:27;;;;;;;;;;;;;;;14.05;66.55664;101606.7;;;;-68
2023/05/15 08:06:27;;;;;;;;;;;;;;;14.06;67.09375;101610.8;;;;-67
2023/05/15 08:11:27;;;;;;;;;;;;;;;14.1;66.84277;101606.6;;;;-66
2023/05/15 08:16:27;;;;;;;;;;;;;;;14.16;67.14258;101611.5;;;;-66
2023/05/15 08:21:28;;;;;;;;;;;;;;;14.2;67.08203;101608.8;;;;-68
2023/05/15 08:23:56;;;;;;;0.3;0.1;;;;;;;;;;;;;-67
2023/05/15 08:26:27;;;;;;;;;;;;;;;14.22;67.04004;101614.4;;;;-66
2023/05/15 08:31:27;;;;;;;;;;;;;;;14.24;67.17773;101615;;;;-67
2023/05/15 08:36:27;;;;;;;;;;;;;;;14.23;67.24316;101618;;;;-67
2023/05/15 08:41:30;;;;;;;;;;;;;;;14.26;66.82129;101619.9;;;;-67
2023/05/15 08:46:27;;;;;;;;;;;;;;;14.25;67.21289;101616.1;;;;-67
2023/05/15 08:51:27;;;;;;;;;;;;;;;14.24;67.35645;101621.4;;;;-66
2023/05/15 08:53:57;;;;;;;0.6;0.3;;;;;;;;;;;;;-66
2023/05/15 08:56:30;;;;;;;;;;;;;;;14.23;67.8916;101619.2;;;;-67
2023/05/15 09:01:28;;;;;;;;;;;;;;;14.27;67.27148;101617.8;;;;-67
2023/05/15 09:06:27;;;;;;;;;;;;;;;14.35;67.72168;101614.4;;;;-68
2023/05/15 09:11:27;;;;;;;;;;;;;;;14.41;67.25977;101608.8;;;;-68
2023/05/15 09:16:27;;;;;;;;;;;;;;;14.49;67.17188;101611.9;;;;-66
2023/05/15 09:21:30;;;;;;;;;;;;;;;14.52;67.38867;101624.2;;;;-67
2023/05/15 09:24:09;;;;;;;0.2;0.1;;;;;;;;;;;;;-67
2023/05/15 09:26:27;;;;;;;;;;;;;;;14.58;66.99316;101627.9;;;;-67
2023/05/15 09:31:30;;;;;;;;;;;;;;;14.6;66.88574;101631.7;;;;-66
2023/05/15 09:36:28;;;;;;;;;;;;;;;14.61;66.94238;101633.1;;;;-66
2023/05/15 09:41:31;;;;;;;;;;;;;;;14.63;66.72168;101623.1;;;;-68
2023/05/15 09:46:30;;;;;;;;;;;;;;;14.63;66.95801;101624.2;;;;-67
2023/05/15 09:51:27;;;;;;;;;;;;;;;14.64;67.22754;101621.3;;;;-67
2023/05/15 09:54:01;;;;;;;0.2;0;;;;;;;;;;;;;-66
2023/05/15 09:56:27;;;;;;;;;;;;;;;14.61;67.4375;101621.7;;;;-66
2023/05/15 10:01:27;;;;;;;;;;;;;;;14.6;67.25391;101626.8;;;;-67
2023/05/15 10:06:27;;;;;;;;;;;;;;;14.59;67.82617;101623.3;;;;-67
2023/05/15 10:11:30;;;;;;;;;;;;;;;14.58;67.83398;101626.7;;;;-65
2023/05/15 10:16:28;;;;;;;;;;;;;;;14.6;67.64648;101623.6;;;;-66
2023/05/15 10:21:29;;;;;;;;;;;;;;;14.61;67.51367;101622.4;;;;-65
2023/05/15 10:24:03;;;;;;;0.3;0.2;;;;;;;;;;;;;-67
2023/05/15 10:26:33;;;;;;;;;;;;;;;14.63;67.5957;101618.3;;;;-66
2023/05/15 10:31:29;;;;;;;;;;;;;;;14.67;68.75586;101621.2;;;;-66
2023/05/15 10:36:27;;;;;;;;;;;;;;;14.73;68.63184;101626.4;;;;-67
2023/05/15 10:41:27;;;;;;;;;;;;;;;14.8;68.5293;101621.3;;;;-66
2023/05/15 10:46:27;;;;;;;;;;;;;;;14.93;69.06641;101622.6;;;;-67
2023/05/15 10:51:35;;;;;;;;;;;;;;;15.03;68.97949;101620.6;;;;-66
2023/05/15 10:54:06;;;;;;;0.2;0.1;;;;;;;;;;;;;-68
2023/05/15 10:56:29;;;;;;;;;;;;;;;15.09;68.6543;101615.3;;;;-65
2023/05/15 11:01:34;;;;;;;;;;;;;;;15.18;67.95996;101614.7;;;;-66
2023/05/15 11:06:31;;;;;;;;;;;;;;;15.2;67.9082;101613.2;;;;-67
2023/05/15 11:11:38;;;;;;;;;;;;;;;15.24;68.03711;101618.3;;;;-67
2023/05/15 11:16:38;;;;;;;;;;;;;;;15.3;68.31543;101609.9;;;;-68
2023/05/15 11:21:28;;;;;;;;;;;;;;;15.44;67.91113;101610.9;;;;-67
2023/05/15 11:24:10;;;;;;;0.2;0.1;;;;;;;;;;;;;-66
2023/05/15 11:26:43;;;;;;;;;;;;;;;15.69;66.98242;101608.6;;;;-66
2023/05/15 11:31:32;;;;;;;;;;;;;;;15.97;66.33984;101600.8;;;;-66
2023/05/15 11:36:32;;;;;;;;;;;;;;;16.35;65.31543;101605.6;;;;-66
2023/05/15 11:41:34;;;;;;;;;;;;;;;16.57;64.71777;101602.8;;;;-67
2023/05/15 11:46:30;;;;;;;;;;;;;;;16.6;64.77832;101604.4;;;;-68
2023/05/15 11:51:28;;;;;;;;;;;;;;;16.56;64.71484;101604.5;;;;-66
2023/05/15 11:54:09;;;;;;;0.2;0;;;;;;;;;;;;;-67
2023/05/15 11:56:28;;;;;;;;;;;;;;;16.51;65.18164;101603.6;;;;-67
2023/05/15 12:01:30;;;;;;;;;;;;;;;16.56;65.12109;101600.6;;;;-67
2023/05/15 12:06:29;;;;;;;;;;;;;;;16.64;65.12109;101600.9;;;;-67
2023/05/15 12:11:28;;;;;;;;;;;;;;;16.7;65.11914;101607.9;;;;-67
2023/05/15 12:16:30;;;;;;;;;;;;;;;16.71;65.1543;101601.7;;;;-67
2023/05/15 12:21:28;;;;;;;;;;;;;;;16.74;65.28125;101607.4;;;;-67
2023/05/15 12:24:13;;;;;;;0.2;0;;;;;;;;;;;;;-67
2023/05/15 12:26:28;;;;;;;;;;;;;;;16.86;65.1875;101614.3;;;;-67
2023/05/15 12:31:30;;;;;;;;;;;;;;;16.94;64.87109;101622.8;;;;-67
2023/05/15 12:36:30;;;;;;;;;;;;;;;16.96;64.54785;101612.4;;;;-67
2023/05/15 12:41:33;;;;;;;;;;;;;;;16.98;64.5166;101615.9;;;;-67
2023/05/15 12:46:32;;;;;;;;;;;;;;;16.95;64.58008;101619.2;;;;-66
2023/05/15 12:51:28;;;;;;;;;;;;;;;16.91;64.4834;101618.6;;;;-67
2023/05/15 12:54:19;;;;;;;0.2;0.1;;;;;;;;;;;;;-67
2023/05/15 12:56:27;;;;;;;;;;;;;;;16.95;64.58008;101622.6;;;;-66
2023/05/15 13:01:27;;;;;;;;;;;;;;;16.95;64.55762;101620;;;;-67
2023/05/15 13:06:30;;;;;;;;;;;;;;;16.89;64.69629;101624.1;;;;-67
2023/05/15 13:11:32;;;;;;;;;;;;;;;16.82;64.71875;101624.3;;;;-66
2023/05/15 13:16:31;;;;;;;;;;;;;;;16.71;64.90723;101618.8;;;;-67
2023/05/15 13:21:28;;;;;;;;;;;;;;;16.65;65.00977;101627;;;;-67
2023/05/15 13:24:16;;;;;;;0.2;0.1;;;;;;;;;;;;;-67
2023/05/15 13:26:27;;;;;;;;;;;;;;;16.6;65.06934;101636.5;;;;-67
2023/05/15 13:31:27;;;;;;;;;;;;;;;16.52;65.14941;101635.2;;;;-67
2023/05/15 13:36:29;;;;;;;;;;;;;;;16.44;65.39648;101637.3;;;;-66
2023/05/15 13:41:27;;;;;;;;;;;;;;;16.34;65.80957;101639.4;;;;-66
2023/05/15 13:46:27;;;;;;;;;;;;;;;16.24;66.03125;101633.8;;;;-67
2023/05/15 13:51:27;;;;;;;;;;;;;;;16.22;66.03809;101639.2;;;;-66
2023/05/15 13:54:19;;;;;;;0.2;0.1;;;;;;;;;;;;;-67
2023/05/15 13:56:27;;;;;;;;;;;;;;;16.23;65.81543;101640.7;;;;-68
2023/05/15 14:01:30;;;;;;;;;;;;;;;16.22;65.76758;101638.6;;;;-67
2023/05/15 14:06:30;;;;;;;;;;;;;;;16.21;65.74512;101635;;;;-67
2023/05/15 14:11:30;;;;;;;;;;;;;;;16.19;65.66211;101635.7;;;;-67
2023/05/15 14:16:27;;;;;;;;;;;;;;;16.15;65.75879;101636.1;;;;-67
2023/05/15 14:21:35;;;;;;;;;;;;;;;16.15;65.58984;101638.7;;;;-66
2023/05/15 14:24:21;;;;;;;0.2;0.1;;;;;;;;;;;;;-66
2023/05/15 14:26:27;;;;;;;;;;;;;;;16.07;65.87109;101640.3;;;;-66
2023/05/15 14:31:30;;;;;;;;;;;;;;;15.98;65.95801;101639.7;;;;-67
2023/05/15 14:36:27;;;;;;;;;;;;;;;15.95;66.05469;101636.8;;;;-68
2023/05/15 14:41:30;;;;;;;;;;;;;;;15.87;66.34668;101640;;;;-73
2023/05/15 14:46:30;;;;;;;;;;;;;;;15.98;65.81152;101644.5;;;;-69
2023/05/15 14:51:30;;;;;;;;;;;;;;;15.98;66.00391;101648.8;;;;-69
2023/05/15 14:54:24;;;;;;;0.2;0.1;;;;;;;;;;;;;-69
2023/05/15 14:56:30;;;;;;;;;;;;;;;15.9;66.36133;101648.3;;;;-69
2023/05/15 15:01:30;;;;;;;;;;;;;;;15.86;66.70508;101645.8;;;;-67
2023/05/15 15:06:30;;;;;;;;;;;;;;;15.82;66.87891;101646.7;;;;-67
2023/05/15 15:11:30;;;;;;;;;;;;;;;15.85;66.66992;101650.2;;;;-69
2023/05/15 15:16:30;;;;;;;;;;;;;;;15.93;66.53613;101649.1;;;;-68
2023/05/15 15:21:28;;;;;;;;;;;;;;;15.95;66.21387;101649.6;;;;-68
2023/05/15 15:24:27;;;;;;;1.3;0.5;;;;;;;;;;;;;-68
2023/05/15 15:26:27;;;;;;;;;;;;;;;15.94;66.49219;101651.5;;;;-70
2023/05/15 15:31:30;;;;;;;;;;;;;;;15.92;66.4209;101654.5;;;;-68
2023/05/15 15:36:27;;;;;;;;;;;;;;;15.79;67.32324;101658.1;;;;-67
2023/05/15 15:41:32;;;;;;;;;;;;;;;15.77;67.17285;101660.9;;;;-68
2023/05/15 15:46:27;;;;;;;;;;;;;;;15.7;67.24316;101666.4;;;;-68
2023/05/15 15:51:30;;;;;;;;;;;;;;;15.68;67.33105;101665.8;;;;-69
2023/05/15 15:54:29;;;;;;;0.2;0;;;;;;;;;;;;;-69
2023/05/15 15:56:30;;;;;;;;;;;;;;;15.59;67.7998;101668;;;;-67
2023/05/15 16:01:30;;;;;;;;;;;;;;;15.52;68.01367;101678.9;;;;-68
2023/05/15 16:06:29;;;;;;;;;;;;;;;15.43;68.18066;101683.4;;;;-68
2023/05/15 16:11:27;;;;;;;;;;;;;;;15.35;68.21094;101692.4;;;;-70
2023/05/15 16:16:32;;;;;;;;;;;;;;;15.29;67.93164;101700.6;;;;-68
2023/05/15 16:21:30;;;;;;;;;;;;;;;15.13;68.32324;101707.8;;;;-68
2023/05/15 16:24:30;;;;;;;0.2;0;;;;;;;;;;;;;-68
2023/05/15 16:26:30;;;;;;;;;;;;;;;15;68.3584;101715.3;;;;-68
2023/05/15 16:31:30;;;;;;;;;;;;;;;14.93;68.41602;101721.8;;;;-69
2023/05/15 16:36:30;;;;;;;;;;;;;;;14.85;68.3125;101720;;;;-68
2023/05/15 16:41:30;;;;;;;;;;;;;;;14.75;68.21973;101723.7;;;;-68
2023/05/15 16:46:30;;;;;;;;;;;;;;;14.63;68.3916;101719.9;;;;-70
2023/05/15 16:51:30;;;;;;;;;;;;;;;14.54;68.2207;101734.3;;;;-68
2023/05/15 16:54:32;;;;;;;0.2;0.1;;;;;;;;;;;;;-68
2023/05/15 16:56:33;;;;;;;;;;;;;;;14.46;68.12012;101734.6;;;;-67
2023/05/15 17:01:27;;;;;;;;;;;;;;;14.39;68.00586;101743.8;;;;-69
2023/05/15 17:06:30;;;;;;;;;;;;;;;14.31;67.51172;101743.8;;;;-68
2023/05/15 17:11:30;;;;;;;;;;;;;;;14.26;67.24707;101741.7;;;;-68
2023/05/15 17:16:28;;;;;;;;;;;;;;;14.2;66.9707;101755;;;;-70
2023/05/15 17:21:36;;;;;;;;;;;;;;;14.12;67.38379;101750;;;;-68
2023/05/15 17:24:34;;;;;;;0.2;0.1;;;;;;;;;;;;;-69
2023/05/15 17:26:30;;;;;;;;;;;;;;;14.05;66.98047;101751.1;;;;-67
2023/05/15 17:31:28;;;;;;;;;;;;;;;13.97;66.96777;101761.1;;;;-66
2023/05/15 17:36:27;;;;;;;;;;;;;;;13.91;66.91504;101761.4;;;;-65
2023/05/15 17:41:30;;;;;;;;;;;;;;;13.82;66.66602;101774.1;;;;-66
2023/05/15 17:46:29;;;;;;;;;;;;;;;13.73;66.40723;101772;;;;-65
2023/05/15 17:51:27;;;;;;;;;;;;;;;13.67;66.35156;101783.8;;;;-66
2023/05/15 17:54:36;;;;;;;0.2;0.1;;;;;;;;;;;;;-67
2023/05/15 17:56:31;;;;;;;;;;;;;;;13.63;66.80469;101779.1;;;;-66
2023/05/15 18:01:30;;;;;;;;;;;;;;;13.51;67.89355;101801.8;;;;-66
2023/05/15 18:06:27;;;;;;;;;;;;;;;13.36;68.82031;101803;;;;-66
2023/05/15 18:11:27;;;;;;;;;;;;;;;13.28;68.65234;101823.1;;;;-67
2023/05/15 18:16:31;;;;;;;;;;;;;;;13.22;68.96582;101823.8;;;;-67
2023/05/15 18:21:27;;;;;;;;;;;;;;;13.01;69.9375;101829.8;;;;-66
2023/05/15 18:24:38;;;;;;;0.2;0.1;;;;;;;;;;;;;-66
2023/05/15 18:26:30;;;;;;;;;;;;;;;12.98;69.62012;101840;;;;-66
2023/05/15 18:31:30;;;;;;;;;;;;;;;12.84;69.66504;101846.3;;;;-66
2023/05/15 18:36:27;;;;;;;;;;;;;;;12.76;69.59668;101856.2;;;;-67
2023/05/15 18:41:27;;;;;;;;;;;;;;;12.7;69.75488;101856.8;;;;-66
2023/05/15 18:46:30;;;;;;;;;;;;;;;12.61;70.31055;101867.3;;;;-67
2023/05/15 18:51:30;;;;;;;;;;;;;;;12.53;70.3291;101878.8;;;;-67
2023/05/15 18:54:40;;;;;;;0.2;0.1;;;;;;;;;;;;;-66
2023/05/15 18:56:30;;;;;;;;;;;;;;;12.5;69.89063;101883.7;;;;-67
2023/05/15 19:01:27;;;;;;;;;;;;;;;12.43;69.96777;101892.6;;;;-67
2023/05/15 19:06:29;;;;;;;;;;;;;;;12.37;69.74707;101904.5;;;;-66
2023/05/15 19:11:30;;;;;;;;;;;;;;;12.28;69.98926;101910.3;;;;-66
2023/05/15 19:16:31;;;;;;;;;;;;;;;12.2;70.46582;101919.7;;;;-69
2023/05/15 19:21:30;;;;;;;;;;;;;;;12.15;70.55762;101924.9;;;;-69
2023/05/15 19:24:41;;;;;;;0.2;0;;;;;;;;;;;;;-69
2023/05/15 19:26:29;;;;;;;;;;;;;;;12.07;69.92285;101928.8;;;;-68
2023/05/15 19:31:30;;;;;;;;;;;;;;;12.02;70.42773;101929.7;;;;-68
2023/05/15 19:36:30;;;;;;;;;;;;;;;11.96;70.33789;101933.1;;;;-68
2023/05/15 19:41:30;;;;;;;;;;;;;;;11.86;70.41211;101946;;;;-68
2023/05/15 19:46:27;;;;;;;;;;;;;;;11.8;69.82324;101944.7;;;;-68
2023/05/15 19:51:27;;;;;;;;;;;;;;;11.71;70.27734;101958;;;;-68
2023/05/15 19:54:45;;;;;;;0.2;0.1;;;;;;;;;;;;;-68
2023/05/15 19:56:28;;;;;;;;;;;;;;;11.64;70.06543;101956.6;;;;-70
2023/05/15 20:01:27;;;;;;;;;;;;;;;11.58;70.22266;101969.3;;;;-69
2023/05/15 20:06:27;;;;;;;;;;;;;;;11.49;70.0293;101968.7;;;;-68
2023/05/15 20:11:30;;;;;;;;;;;;;;;11.37;70.07715;101973.4;;;;-68
2023/05/15 20:16:29;;;;;;;;;;;;;;;11.26;69.94727;101978.1;;;;-68
2023/05/15 20:21:27;;;;;;;;;;;;;;;11.15;70.12012;101979.5;;;;-69
2023/05/15 20:24:44;;;;;;;0.2;0;;;;;;;;;;;;;-69
2023/05/15 20:26:30;;;;;;;;;;;;;;;11.11;70.09082;101990.4;;;;-68
2023/05/15 20:31:27;;;;;;;;;;;;;;;11;69.96387;101995.4;;;;-68
2023/05/15 20:36:31;;;;;;;;;;;;;;;10.91;69.89355;101997.1;;;;-68
2023/05/15 20:41:30;;;;;;;;;;;;;;;10.84;70.11523;102003;;;;-67
2023/05/15 20:46:31;;;;;;;;;;;;;;;10.8;69.89648;102012.1;;;;-69
2023/05/15 20:51:27;;;;;;;;;;;;;;;10.66;70.1084;102017.1;;;;-68
2023/05/15 20:54:45;;;;;;;0.2;0;;;;;;;;;;;;;-68
2023/05/15 20:56:28;;;;;;;;;;;;;;;10.65;70.0625;102023.2;;;;-68
2023/05/15 21:01:27;;;;;;;;;;;;;;;10.55;69.67871;102023.7;;;;-70
2023/05/15 21:06:27;;;;;;;;;;;;;;;10.45;69.83008;102027.2;;;;-68
2023/05/15 21:11:32;;;;;;;;;;;;;;;10.43;70.00391;102031;;;;-69
2023/05/15 21:16:28;;;;;;;;;;;;;;;10.33;69.87793;102033.3;;;;-70
2023/05/15 21:21:27;;;;;;;;;;;;;;;10.25;70.12012;102033.5;;;;-69
2023/05/15 21:24:47;;;;;;;0.2;0;;;;;;;;;;;;;-68
2023/05/15 21:26:27;;;;;;;;;;;;;;;10.19;70.00977;102036.3;;;;-69
2023/05/15 21:31:30;;;;;;;;;;;;;;;10.11;70.37402;102039;;;;-68
2023/05/15 21:36:27;;;;;;;;;;;;;;;10.04;70.01953;102041.7;;;;-69
2023/05/15 21:41:28;;;;;;;;;;;;;;;9.98;70.13184;102044.8;;;;-66
2023/05/15 21:46:27;;;;;;;;;;;;;;;9.93;69.95801;102048.8;;;;-68
2023/05/15 21:51:29;;;;;;;;;;;;;;;9.84;70.17578;102050.2;;;;-68
2023/05/15 21:54:48;;;;;;;0.2;0.1;;;;;;;;;;;;;-68
2023/05/15 21:56:27;;;;;;;;;;;;;;;9.81;70.01563;102059.7;;;;-70
2023/05/15 22:01:27;;;;;;;;;;;;;;;9.74;69.92578;102064.9;;;;-69
2023/05/15 22:06:27;;;;;;;;;;;;;;;9.62;70.28516;102071.5;;;;-67
2023/05/15 22:11:30;;;;;;;;;;;;;;;9.6;70.14941;102073.9;;;;-70
2023/05/15 22:16:27;;;;;;;;;;;;;;;9.49;69.91992;102068.6;;;;-68
2023/05/15 22:21:30;;;;;;;;;;;;;;;9.44;69.95703;102070.4;;;;-68
2023/05/15 22:24:50;;;;;;;0.2;0.1;;;;;;;;;;;;;-69
2023/05/15 22:26:27;;;;;;;;;;;;;;;9.37;70.12207;102067.8;;;;-68
2023/05/15 22:31:32;;;;;;;;;;;;;;;9.32;70.17969;102068.7;;;;-68
2023/05/15 22:36:27;;;;;;;;;;;;;;;9.29;70.24121;102075.7;;;;-68
2023/05/15 22:41:27;;;;;;;;;;;;;;;9.23;70.2002;102085.6;;;;-69
2023/05/15 22:46:27;;;;;;;;;;;;;;;9.15;70.28418;102091.2;;;;-68
2023/05/15 22:51:28;;;;;;;;;;;;;;;9.12;70.10352;102094.5;;;;-67
2023/05/15 22:54:52;;;;;;;0.2;0.1;;;;;;;;;;;;;-69
2023/05/15 22:56:27;;;;;;;;;;;;;;;9.02;70.09863;102094.6;;;;-67
2023/05/15 23:01:28;;;;;;;;;;;;;;;8.98;70.00488;102104.8;;;;-68
2023/05/15 23:06:29;;;;;;;;;;;;;;;8.96;69.83496;102107.3;;;;-68
2023/05/15 23:11:27;;;;;;;;;;;;;;;8.9;70.00293;102105.9;;;;-68
2023/05/15 23:16:27;;;;;;;;;;;;;;;8.83;69.84766;102104.3;;;;-68
2023/05/15 23:21:37;;;;;;;;;;;;;;;8.76;70.02441;102113.7;;;;-69
2023/05/15 23:24:50;;;;;;;0.2;0.1;;;;;;;;;;;;;-68
2023/05/15 23:26:27;;;;;;;;;;;;;;;8.75;69.70215;102116.6;;;;-67
2023/05/15 23:31:27;;;;;;;;;;;;;;;8.66;69.7207;102111;;;;-68
2023/05/15 23:36:27;;;;;;;;;;;;;;;8.61;69.91211;102105.8;;;;-69
2023/05/15 23:41:30;;;;;;;;;;;;;;;8.55;69.72363;102104.5;;;;-69
2023/05/15 23:46:27;;;;;;;;;;;;;;;8.53;69.81055;102106;;;;-69
2023/05/15 23:51:27;;;;;;;;;;;;;;;8.5;69.99414;102107.5;;;;-69
2023/05/15 23:54:51;;;;;;;0.2;0.1;;;;;;;;;;;;;-68
2023/05/15 23:56:27;;;;;;;;;;;;;;;8.41;69.8252;102107.8;;;;-69
